createdAt,value
2022-08-04T00:04:09.859Z,24.31
2022-08-04T00:09:35.909Z,24.27
2022-08-04T00:14:36.303Z,24.20
2022-08-04T00:19:38.053Z,24.08
2022-08-04T00:24:36.298Z,24.07
2022-08-04T00:29:34.881Z,24.02
2022-08-04T00:34:32.028Z,23.94
2022-08-04T00:39:30.151Z,23.90
2022-08-04T00:44:35.673Z,23.86
2022-08-04T00:49:57.336Z,23.81
2022-08-04T00:55:05.408Z,23.77
2022-08-04T01:00:11.840Z,23.75
2022-08-04T01:05:27.300Z,23.70
2022-08-04T01:10:48.470Z,23.65
2022-08-04T01:16:00.549Z,23.62
2022-08-04T01:21:19.237Z,23.54
2022-08-04T01:26:53.713Z,23.46
2022-08-04T01:32:02.483Z,23.47
2022-08-04T01:37:08.251Z,23.43
2022-08-04T01:42:06.078Z,23.40
2022-08-04T01:47:07.868Z,23.34
2022-08-04T01:52:05.905Z,23.28
2022-08-04T01:57:37.674Z,23.23
2022-08-04T02:02:25.159Z,23.19
2022-08-04T02:07:36.778Z,23.14
2022-08-04T02:13:03.913Z,23.05
2022-08-04T02:18:12.655Z,23.00
2022-08-04T02:23:14.384Z,22.94
2022-08-04T02:28:26.395Z,22.91
2022-08-04T02:33:42.807Z,22.88
2022-08-04T02:38:39.852Z,22.83
2022-08-04T02:43:51.811Z,22.79
2022-08-04T02:48:50.766Z,22.75
2022-08-04T02:53:53.111Z,22.71
2022-08-04T02:58:53.044Z,22.69
2022-08-04T03:04:24.923Z,22.65
2022-08-04T03:09:51.651Z,22.60
2022-08-04T03:15:09.689Z,22.54
2022-08-04T03:20:44.384Z,22.51
2022-08-04T03:26:25.145Z,22.46
2022-08-04T03:31:30.429Z,22.43
2022-08-04T03:36:44.448Z,22.40
2022-08-04T03:42:03.266Z,22.37
2022-08-04T03:47:18.898Z,22.34
2022-08-04T03:52:55.771Z,22.34
2022-08-04T03:58:28.489Z,22.29
2022-08-04T04:03:45.614Z,22.29
2022-08-04T04:08:45.581Z,22.28
2022-08-04T04:14:35.646Z,22.29
2022-08-04T04:19:37.896Z,22.30
2022-08-04T04:24:34.595Z,22.32
2022-08-04T04:30:04.384Z,22.36
2022-08-04T04:35:27.269Z,22.41
2022-08-04T04:41:02.937Z,22.46
2022-08-04T04:46:24.963Z,22.52
2022-08-04T04:51:34.095Z,22.59
2022-08-04T04:56:38.724Z,22.73
2022-08-04T05:01:53.166Z,22.81
2022-08-04T05:07:07.614Z,22.90
2022-08-04T05:14:37.626Z,23.01
2022-08-04T05:19:08.383Z,23.00
2022-08-04T05:30:12.101Z,23.20
2022-08-04T05:35:12.853Z,23.34
2022-08-04T05:40:11.171Z,23.46
2022-08-04T05:45:09.478Z,23.59
2022-08-04T05:50:07.199Z,23.69
2022-08-04T05:55:04.972Z,23.82
2022-08-04T06:00:14.828Z,23.93
2022-08-04T06:05:25.420Z,24.07
2022-08-04T06:10:29.250Z,24.45
2022-08-04T06:20:39.637Z,25.90
2022-08-04T06:25:50.465Z,26.39
2022-08-04T06:30:49.829Z,26.71
2022-08-04T06:35:46.654Z,26.70
2022-08-04T06:40:43.685Z,26.56
2022-08-04T06:45:41.887Z,26.44
2022-08-04T06:51:24.662Z,26.40
2022-08-04T06:55:57.518Z,26.39
2022-08-04T07:00:54.977Z,26.42
2022-08-04T07:05:52.270Z,26.44
2022-08-04T07:10:51.800Z,26.47
2022-08-04T07:15:49.054Z,26.48
2022-08-04T07:21:39.201Z,26.43
2022-08-04T07:27:07.059Z,26.51
2022-08-04T07:32:16.339Z,26.58
2022-08-04T07:37:44.659Z,26.74
2022-08-04T07:43:36.486Z,26.69
2022-08-04T07:49:54.369Z,26.69
2022-08-04T07:54:45.561Z,26.83
2022-08-04T07:59:50.269Z,26.90
2022-08-04T08:05:04.172Z,27.01
2022-08-04T08:22:21.101Z,27.61
2022-08-04T08:34:10.975Z,27.96
2022-08-04T08:45:54.922Z,28.41
2022-08-04T08:51:31.997Z,28.62
2022-08-04T08:56:45.951Z,28.77
2022-08-04T09:02:25.340Z,28.95
2022-08-04T09:07:22.048Z,29.09
2022-08-04T09:12:25.875Z,29.22
2022-08-04T09:17:29.501Z,29.35
2022-08-04T09:22:39.989Z,29.47
2022-08-04T09:27:48.260Z,29.58
2022-08-04T09:33:44.621Z,29.69
2022-08-04T09:39:11.178Z,29.76
2022-08-04T09:44:50.316Z,29.88
2022-08-04T09:49:52.677Z,29.98
2022-08-04T09:55:26.984Z,30.06
2022-08-04T10:00:41.396Z,30.12
2022-08-04T10:06:06.801Z,30.20
2022-08-04T10:11:56.474Z,30.27
2022-08-04T10:17:26.308Z,30.31
2022-08-04T10:22:37.111Z,30.36
2022-08-04T10:27:45.416Z,30.38
2022-08-04T10:32:52.192Z,30.44
2022-08-04T10:38:03.719Z,30.51
2022-08-04T10:43:27.636Z,30.62
2022-08-04T10:48:47.224Z,30.78
2022-08-04T10:53:45.492Z,30.87
2022-08-04T10:58:55.459Z,30.89
2022-08-04T11:03:56.783Z,30.96
2022-08-04T11:08:56.029Z,31.00
2022-08-04T11:14:13.231Z,31.02
2022-08-04T11:19:43.030Z,31.08
2022-08-04T11:24:46.540Z,31.17
2022-08-04T11:29:53.518Z,31.17
2022-08-04T11:34:53.259Z,31.26
2022-08-04T11:40:12.042Z,31.41
2022-08-04T11:45:13.176Z,31.52
2022-08-04T11:50:41.462Z,31.61
2022-08-04T11:56:07.737Z,31.71
2022-08-04T12:01:23.221Z,31.79
2022-08-04T12:06:33.465Z,31.90
2022-08-04T12:11:54.565Z,31.99
2022-08-04T12:17:01.565Z,32.09
2022-08-04T12:22:01.779Z,32.14
2022-08-04T12:27:04.943Z,32.11
2022-08-04T12:32:12.644Z,32.14
2022-08-04T12:37:22.266Z,32.17
2022-08-04T12:42:34.376Z,32.20
2022-08-04T12:47:31.259Z,32.22
2022-08-04T12:52:51.584Z,32.31
2022-08-04T12:57:45.438Z,32.37
2022-08-04T13:02:43.881Z,32.39
2022-08-04T13:07:44.906Z,32.46
2022-08-04T13:13:02.563Z,32.52
2022-08-04T13:18:00.024Z,32.62
2022-08-04T13:23:09.084Z,32.59
2022-08-04T13:28:06.722Z,32.53
2022-08-04T13:33:04.616Z,32.45
2022-08-04T13:38:02.025Z,32.45
2022-08-04T13:42:58.766Z,32.49
2022-08-04T13:47:59.027Z,32.47
2022-08-04T13:53:12.236Z,32.43
2022-08-04T13:58:22.179Z,32.39
2022-08-04T14:03:53.913Z,32.42
2022-08-04T14:08:55.641Z,32.51
2022-08-04T14:13:52.294Z,32.61
2022-08-04T14:19:01.697Z,32.65
2022-08-04T14:24:00.618Z,32.70
2022-08-04T14:29:27.231Z,32.75
2022-08-04T14:34:26.842Z,32.84
2022-08-04T14:39:38.487Z,32.87
2022-08-04T14:44:53.957Z,32.80
2022-08-04T14:49:55.203Z,32.68
2022-08-04T14:54:51.750Z,32.61
2022-08-04T14:59:59.421Z,32.54
2022-08-04T15:04:59.939Z,32.38
2022-08-04T15:10:16.727Z,32.13
2022-08-04T15:15:35.221Z,31.86
2022-08-04T15:20:31.712Z,31.50
2022-08-04T15:25:28.340Z,31.03
2022-08-04T15:30:24.855Z,30.71
2022-08-04T15:35:32.006Z,30.45
2022-08-04T15:41:04.019Z,30.22
2022-08-04T15:46:41.109Z,30.01
2022-08-04T15:51:28.329Z,29.80
2022-08-04T15:56:28.850Z,29.57
2022-08-04T16:01:29.947Z,29.30
2022-08-04T16:06:27.484Z,29.03
2022-08-04T16:11:31.523Z,28.62
2022-08-04T16:16:57.380Z,28.13
2022-08-04T16:21:56.160Z,27.68
2022-08-04T16:26:57.488Z,27.36
2022-08-04T16:32:06.845Z,27.07
2022-08-04T16:37:08.947Z,26.99
2022-08-04T16:42:30.328Z,26.96
2022-08-04T16:47:48.666Z,26.88
2022-08-04T16:52:46.802Z,26.81
2022-08-04T16:57:47.231Z,26.71
2022-08-04T17:02:47.360Z,26.63
2022-08-04T17:08:28.009Z,26.52
2022-08-04T17:14:03.552Z,26.40
2022-08-04T17:18:40.481Z,26.32
2022-08-04T17:24:14.247Z,26.22
2022-08-04T17:29:01.555Z,26.11
2022-08-04T17:34:00.628Z,26.10
2022-08-04T17:39:00.079Z,26.11
2022-08-04T17:44:03.875Z,26.06
2022-08-04T17:49:06.946Z,26.00
2022-08-04T17:54:04.807Z,25.95
2022-08-04T17:59:52.273Z,25.93
2022-08-04T18:04:39.188Z,25.96
2022-08-04T18:10:27.463Z,25.94
2022-08-04T18:20:45.780Z,25.78
2022-08-04T18:31:04.115Z,25.76
2022-08-04T18:36:33.379Z,25.66
2022-08-04T18:41:17.331Z,25.66
2022-08-04T18:46:15.267Z,25.59
2022-08-04T18:51:23.651Z,25.54
2022-08-04T18:56:29.745Z,25.50
2022-08-04T19:01:30.001Z,25.45
2022-08-04T19:06:45.367Z,25.39
2022-08-04T19:11:55.301Z,25.36
2022-08-04T19:16:52.748Z,25.31
2022-08-04T19:21:59.705Z,25.24
2022-08-04T19:26:58.844Z,25.18
2022-08-04T19:31:55.351Z,25.14
2022-08-04T19:36:52.555Z,25.09
2022-08-04T19:42:05.662Z,25.04
2022-08-04T19:48:17.827Z,25.03
2022-08-04T19:57:37.991Z,24.88
2022-08-04T20:02:37.985Z,24.84
2022-08-04T20:07:34.653Z,24.82
2022-08-04T20:12:31.769Z,24.76
2022-08-04T20:18:06.852Z,24.73
2022-08-04T20:22:52.593Z,24.64
2022-08-04T20:28:00.258Z,24.57
2022-08-04T20:32:58.038Z,24.52
2022-08-04T20:43:14.467Z,24.35
2022-08-04T20:48:12.422Z,24.28
2022-08-04T20:53:16.753Z,24.24
2022-08-04T20:58:13.727Z,24.21
2022-08-04T21:03:10.438Z,24.19
2022-08-04T21:08:07.137Z,24.13
2022-08-04T21:13:03.741Z,24.01
2022-08-04T21:18:04.542Z,23.97
2022-08-04T21:23:02.169Z,23.88
2022-08-04T21:28:04.296Z,23.81
2022-08-04T21:33:01.243Z,23.77
2022-08-04T21:38:01.373Z,23.67
2022-08-04T21:42:59.334Z,23.57
2022-08-04T21:47:59.508Z,23.49
2022-08-04T21:52:56.051Z,23.44
2022-08-04T21:57:54.093Z,23.39
2022-08-04T22:02:53.546Z,23.30
2022-08-04T22:07:51.925Z,23.22
2022-08-04T22:12:52.087Z,23.16
2022-08-04T22:17:48.883Z,23.09
2022-08-04T22:22:53.577Z,23.03
2022-08-04T22:28:07.820Z,22.95
2022-08-04T22:33:07.489Z,22.87
2022-08-04T22:38:07.365Z,22.83
2022-08-04T22:43:31.833Z,22.80
2022-08-04T22:48:32.005Z,22.76
2022-08-04T22:53:29.040Z,22.70
2022-08-04T22:58:28.649Z,22.64
2022-08-04T23:03:37.792Z,22.56
2022-08-04T23:08:36.378Z,22.52
2022-08-04T23:13:33.080Z,22.48
2022-08-04T23:18:29.628Z,22.45
2022-08-04T23:23:26.209Z,22.38
2022-08-04T23:28:24.388Z,22.33
2022-08-04T23:33:20.956Z,22.28
2022-08-04T23:38:31.331Z,22.21
2022-08-04T23:43:28.726Z,22.16
2022-08-04T23:48:45.581Z,22.15
2022-08-04T23:54:02.526Z,22.13
2022-08-04T23:59:00.560Z,22.08
